Time;durP1;ratioP1;P1;durP2;ratioP2;P2;SDS_P1;SDS_P2;PMS_P1;PMS_P2;Temp;Humidity;BMP_temperature;BMP_pressure;BME280_temperature;BME280_humidity;BME280_pressure;Samples;Min_cycle;Max_cycle;Signal;HPM_P1;HPM_P2
2023/07/26 00:01:47;;;;;;;1.40;1.30;;;;;;;13.58;100.00;95782.00;4974611;28;101924;-77
2023/07/26 00:04:14;;;;;;;1.63;1.53;;;;;;;13.46;100.00;95794.97;4954201;28;104051;-77
2023/07/26 00:06:41;;;;;;;1.40;1.30;;;;;;;13.43;100.00;95792.84;4971125;28;101971;-77
2023/07/26 00:09:09;;;;;;;1.60;1.50;;;;;;;13.40;100.00;95796.88;4954708;28;104967;-77
2023/07/26 00:11:37;;;;;;;1.13;1.13;;;;;;;13.39;100.00;95800.63;4953939;28;105552;-77
2023/07/26 00:14:04;;;;;;;1.27;1.17;;;;;;;13.29;100.00;95802.59;4954611;28;101931;-72
2023/07/26 00:16:31;;;;;;;1.27;1.17;;;;;;;13.33;100.00;95798.28;4954618;28;105244;-72
2023/07/26 00:18:58;;;;;;;1.37;1.10;;;;;;;13.37;100.00;95810.00;4971355;28;102552;-71
2023/07/26 00:21:26;;;;;;;1.23;1.17;;;;;;;13.32;100.00;95815.38;4970866;28;101928;-77
2023/07/26 00:23:53;;;;;;;1.57;1.37;;;;;;;13.33;100.00;95823.13;4957153;28;105412;-77
2023/07/26 00:26:22;;;;;;;1.30;1.20;;;;;;;13.28;100.00;95822.34;4970658;28;102314;-77
2023/07/26 00:28:49;;;;;;;1.30;1.20;;;;;;;13.36;100.00;95827.09;4970733;28;105255;-77
2023/07/26 00:31:15;;;;;;;1.40;1.30;;;;;;;13.35;100.00;95820.19;4970210;28;105638;-74
2023/07/26 00:33:42;;;;;;;1.57;1.47;;;;;;;13.41;100.00;95827.84;4970621;28;102037;-75
2023/07/26 00:36:10;;;;;;;1.70;1.40;;;;;;;13.41;100.00;95835.06;4970643;28;105273;-75
2023/07/26 00:38:37;;;;;;;1.40;1.30;;;;;;;13.34;100.00;95834.59;4953273;28;105439;-74
2023/07/26 00:41:06;;;;;;;10.27;2.00;;;;;;;13.32;100.00;95834.06;4971848;28;102129;-74
2023/07/26 00:43:35;;;;;;;1.90;1.70;;;;;;;13.32;100.00;95832.22;4956959;28;105296;-74
2023/07/26 00:46:02;;;;;;;2.50;1.60;;;;;;;13.50;100.00;95833.38;4970517;28;101894;-74
2023/07/26 00:48:29;;;;;;;1.87;1.50;;;;;;;13.29;100.00;95838.09;4970311;28;105455;-74
2023/07/26 00:50:57;;;;;;;1.83;1.63;;;;;;;13.22;100.00;95850.19;4968804;28;105594;-74
2023/07/26 00:53:24;;;;;;;4.27;1.73;;;;;;;13.20;100.00;95849.66;4971679;28;101915;-74
2023/07/26 00:55:52;;;;;;;2.13;1.90;;;;;;;13.26;100.00;95851.22;4953786;28;105429;-73
2023/07/26 00:58:18;;;;;;;3.03;2.30;;;;;;;13.28;100.00;95849.06;4969763;28;105129;-73
2023/07/26 01:00:48;;;;;;;2.53;2.33;;;;;;;13.41;100.00;95841.19;4953957;28;102166;-73
2023/07/26 01:03:15;;;;;;;2.13;1.87;;;;;;;13.21;100.00;95852.06;4953997;28;104703;-73
2023/07/26 01:05:52;;;;;;;2.60;2.40;;;;;;;13.33;100.00;95859.69;4956495;28;105431;-73
2023/07/26 01:08:27;;;;;;;2.20;2.00;;;;;;;13.17;100.00;95856.38;4953996;28;105220;-73
2023/07/26 01:11:00;;;;;;;2.40;2.20;;;;;;;13.28;100.00;95862.41;4970840;28;102615;-73
2023/07/26 01:13:35;;;;;;;3.77;2.30;;;;;;;13.42;100.00;95860.69;4953747;28;101943;-73
2023/07/26 01:16:05;;;;;;;2.73;2.40;;;;;;;13.39;100.00;95859.38;4971511;28;103516;-79
2023/07/26 01:18:32;;;;;;;3.17;2.87;;;;;;;13.29;100.00;95866.66;4969264;28;104522;-83
2023/07/26 01:20:59;;;;;;;3.07;2.50;;;;;;;13.31;100.00;95862.63;4970379;28;102076;-87
2023/07/26 01:23:28;;;;;;;3.20;2.90;;;;;;;13.44;100.00;95874.56;4969946;28;105507;-88
2023/07/26 01:25:55;;;;;;;3.10;2.80;;;;;;;13.54;100.00;95874.47;4969002;28;105009;-87
2023/07/26 01:28:22;;;;;;;2.33;2.13;;;;;;;13.44;100.00;95874.56;4956698;28;101915;-85
2023/07/26 01:30:50;;;;;;;2.37;1.90;;;;;;;13.41;100.00;95872.47;4952638;28;104327;-84
2023/07/26 01:33:20;;;;;;;2.80;2.20;;;;;;;13.38;100.00;95883.69;4953128;28;101911;-72
2023/07/26 01:35:48;;;;;;;2.80;2.20;;;;;;;13.46;100.00;95870.53;4953485;28;105970;-72
2023/07/26 01:38:17;;;;;;;2.43;2.23;;;;;;;13.41;100.00;95877.81;4952791;28;105526;-74
2023/07/26 01:40:46;;;;;;;2.57;2.37;;;;;;;13.84;100.00;95882.22;4953231;28;102181;-70
2023/07/26 01:43:23;;;;;;;2.67;2.47;;;;;;;13.44;100.00;95886.06;4969681;28;105292;-71
2023/07/26 01:45:50;;;;;;;2.70;2.50;;;;;;;13.40;100.00;95873.56;4970446;28;103242;-71
2023/07/26 01:48:17;;;;;;;3.00;2.50;;;;;;;13.29;100.00;95880.81;4969476;28;101980;-71
2023/07/26 01:50:45;;;;;;;6.90;3.30;;;;;;;13.38;100.00;95879.16;4971946;28;105182;-71
2023/07/26 01:53:12;;;;;;;2.80;2.43;;;;;;;13.32;100.00;95879.47;4970798;28;101884;-71
2023/07/26 01:55:40;;;;;;;2.50;2.30;;;;;;;13.36;100.00;95880.50;4969482;28;105513;-71
2023/07/26 01:58:08;;;;;;;2.17;2.00;;;;;;;13.49;100.00;95891.34;4968746;28;105222;-71
2023/07/26 02:00:35;;;;;;;3.07;2.80;;;;;;;13.64;100.00;95893.09;4952980;28;102343;-71
2023/07/26 02:03:02;;;;;;;2.43;2.33;;;;;;;13.42;100.00;95892.75;4968628;28;105315;-71
2023/07/26 02:05:29;;;;;;;3.53;2.53;;;;;;;13.46;100.00;95889.22;4952325;28;105880;-70
2023/07/26 02:07:56;;;;;;;2.97;2.77;;;;;;;13.61;100.00;95882.94;4969065;28;101913;-72
2023/07/26 02:10:24;;;;;;;3.47;2.77;;;;;;;13.64;100.00;95896.56;4969313;28;105947;-71
2023/07/26 02:12:51;;;;;;;2.77;2.37;;;;;;;14.00;100.00;95897.03;4972180;28;105750;-71
2023/07/26 02:15:21;;;;;;;2.70;2.50;;;;;;;14.15;100.00;95903.00;4953036;28;105369;-71
2023/07/26 02:17:49;;;;;;;2.83;2.63;;;;;;;13.91;100.00;95896.03;4969714;28;103727;-71
2023/07/26 02:20:16;;;;;;;5.20;2.30;;;;;;;14.53;100.00;95909.28;4952875;28;102179;-71
2023/07/26 02:22:43;;;;;;;2.53;2.37;;;;;;;14.87;100.00;95917.94;4952569;28;105365;-71
2023/07/26 02:25:12;;;;;;;2.87;2.67;;;;;;;14.79;100.00;95915.91;4968549;28;104758;-73
2023/07/26 02:27:41;;;;;;;2.83;2.53;;;;;;;14.51;100.00;95914.91;4968935;28;102033;-68
2023/07/26 02:30:09;;;;;;;2.63;2.17;;;;;;;14.50;100.00;95925.91;4952455;28;104257;-69
2023/07/26 02:32:37;;;;;;;4.60;2.70;;;;;;;14.45;100.00;95921.41;4951964;28;105593;-69
2023/07/26 02:35:06;;;;;;;2.53;2.40;;;;;;;14.69;100.00;95924.88;4955831;28;101941;-69
2023/07/26 02:37:35;;;;;;;4.37;2.20;;;;;;;14.83;100.00;95925.72;4967920;28;105622;-69
2023/07/26 02:40:03;;;;;;;2.47;2.37;;;;;;;14.68;100.00;95927.81;4952377;28;102077;-69
2023/07/26 02:42:30;;;;;;;3.13;2.60;;;;;;;14.14;100.00;95930.81;4952329;28;104319;-68
2023/07/26 02:44:58;;;;;;;2.97;2.60;;;;;;;13.99;100.00;95927.50;4967988;28;104379;-69
2023/07/26 02:47:25;;;;;;;4.80;2.13;;;;;;;14.23;100.00;95934.47;4952491;28;101913;-69
2023/07/26 02:49:55;;;;;;;2.40;2.13;;;;;;;13.97;100.00;95940.34;4968431;28;105320;-69
2023/07/26 02:52:22;;;;;;;2.90;2.50;;;;;;;14.11;100.00;95941.28;4967929;28;106038;-73
2023/07/26 02:54:49;;;;;;;2.77;2.57;;;;;;;14.52;100.00;95948.63;4973220;28;101883;-73
2023/07/26 02:57:15;;;;;;;2.60;2.50;;;;;;;14.45;100.00;95950.81;4969347;28;102823;-74
2023/07/26 02:59:42;;;;;;;3.67;2.70;;;;;;;14.25;100.00;95950.25;4952421;28;101992;-82
2023/07/26 03:02:09;;;;;;;2.60;2.40;;;;;;;14.35;100.00;95952.81;4968734;28;105234;-76
2023/07/26 03:04:36;;;;;;;3.23;2.80;;;;;;;14.21;100.00;95947.34;4967844;28;105400;-74
2023/07/26 03:07:05;;;;;;;3.00;2.70;;;;;;;13.82;100.00;95951.97;4951953;28;101882;-70
2023/07/26 03:09:32;;;;;;;3.17;2.87;;;;;;;13.81;100.00;95957.59;4952189;28;105756;-69
2023/07/26 03:11:59;;;;;;;2.80;2.37;;;;;;;14.25;100.00;95960.94;4967849;28;105156;-69
2023/07/26 03:14:26;;;;;;;2.97;2.60;;;;;;;14.27;100.00;95962.25;4955367;28;102060;-69
2023/07/26 03:16:54;;;;;;;3.17;2.97;;;;;;;14.51;100.00;95957.72;4958204;28;105498;-69
2023/07/26 03:19:21;;;;;;;5.63;3.43;;;;;;;14.16;100.00;95954.59;4972964;28;101812;-69
2023/07/26 03:21:48;;;;;;;4.07;2.77;;;;;;;14.03;100.00;95956.06;4973178;28;102948;-69
2023/07/26 03:24:16;;;;;;;3.37;3.17;;;;;;;14.24;100.00;95959.38;4971036;28;106112;-81
2023/07/26 03:26:43;;;;;;;5.20;3.40;;;;;;;14.17;100.00;95961.56;4971801;28;101930;-70
2023/07/26 03:29:10;;;;;;;4.23;3.60;;;;;;;14.13;100.00;95965.88;4955231;28;105437;-70
2023/07/26 03:31:38;;;;;;;3.80;3.20;;;;;;;13.63;100.00;95967.09;4954847;28;105563;-82
2023/07/26 03:34:05;;;;;;;6.47;3.20;;;;;;;14.44;100.00;95972.53;4955098;28;101935;-73
2023/07/26 03:36:32;;;;;;;3.97;3.67;;;;;;;14.36;100.00;95971.28;4955081;28;104967;-73
2023/07/26 03:38:59;;;;;;;7.67;3.80;;;;;;;14.25;100.00;95969.78;4974172;28;105350;-73
2023/07/26 03:41:27;;;;;;;4.93;4.43;;;;;;;13.71;100.00;95979.88;4954962;28;105263;-72
2023/07/26 03:43:54;;;;;;;5.10;3.83;;;;;;;13.67;100.00;95978.00;4954428;28;105418;-73
2023/07/26 03:46:22;;;;;;;6.67;4.53;;;;;;;13.51;100.00;95973.91;4971593;28;102032;-73
2023/07/26 03:48:49;;;;;;;4.77;4.37;;;;;;;13.86;100.00;95986.97;4955229;28;105272;-73
2023/07/26 03:51:16;;;;;;;14.10;4.37;;;;;;;13.96;100.00;95984.22;4971807;28;102684;-72
2023/07/26 03:53:43;;;;;;;7.87;4.67;;;;;;;13.61;100.00;95984.47;4971563;28;101852;-71
2023/07/26 03:56:10;;;;;;;5.70;5.20;;;;;;;13.61;100.00;95990.63;4972004;28;105507;-81
2023/07/26 03:58:39;;;;;;;4.50;4.00;;;;;;;13.64;100.00;95983.94;4971519;28;106064;-76
2023/07/26 04:01:06;;;;;;;5.63;4.70;;;;;;;13.53;100.00;95993.88;4959100;28;101991;-77
2023/07/26 04:03:34;;;;;;;5.47;4.83;;;;;;;13.56;100.00;95993.34;4954997;28;105507;-77
2023/07/26 04:06:01;;;;;;;6.23;5.30;;;;;;;13.64;100.00;96000.78;4971917;28;101907;-77
2023/07/26 04:08:28;;;;;;;6.63;5.27;;;;;;;13.36;100.00;95992.69;4971798;28;105143;-71
2023/07/26 04:10:55;;;;;;;5.47;4.97;;;;;;;13.30;100.00;96004.47;4954808;28;104356;-81
2023/07/26 04:13:22;;;;;;;5.20;4.47;;;;;;;13.56;100.00;96006.69;4971951;28;101972;-86
2023/07/26 04:15:51;;;;;;;6.00;5.50;;;;;;;13.58;100.00;96007.19;4971693;28;102955;-78
2023/07/26 04:18:18;;;;;;;5.87;5.27;;;;;;;13.59;100.00;96016.03;4970774;28;105454;-78
2023/07/26 04:20:45;;;;;;;5.33;4.63;;;;;;;13.50;100.00;96010.47;4971687;28;102091;-79
2023/07/26 04:23:11;;;;;;;6.17;4.80;;;;;;;13.58;100.00;96023.22;4975748;28;102870;-77
2023/07/26 04:25:38;;;;;;;5.10;4.70;;;;;;;13.75;100.00;96022.88;4972029;28;101998;-76
2023/07/26 04:28:06;;;;;;;5.70;5.20;;;;;;;14.03;100.00;96024.78;4971732;28;105512;-71
2023/07/26 04:30:33;;;;;;;5.83;4.87;;;;;;;14.09;100.00;96026.31;4970716;28;106026;-79
2023/07/26 04:33:01;;;;;;;6.40;4.43;;;;;;;14.29;100.00;96031.53;4971529;28;102039;-76
2023/07/26 04:35:28;;;;;;;5.43;4.93;;;;;;;13.76;100.00;96029.81;4955109;28;104118;-79
2023/07/26 04:37:55;;;;;;;6.30;4.80;;;;;;;13.68;100.00;96033.06;4970530;28;105039;-81
2023/07/26 04:40:22;;;;;;;6.30;4.57;;;;;;;13.75;100.00;96029.03;4955214;28;101931;-79
2023/07/26 04:42:49;;;;;;;6.20;4.70;;;;;;;13.45;100.00;96034.53;4954861;28;105630;-81
2023/07/26 04:45:16;;;;;;;6.30;5.50;;;;;;;13.28;100.00;96044.00;4973731;28;101912;-85
2023/07/26 04:47:43;;;;;;;8.23;5.33;;;;;;;13.51;100.00;96046.03;4954698;28;105423;-88
2023/07/26 04:50:11;;;;;;;5.83;5.23;;;;;;;13.44;100.00;96048.19;4953589;28;105844;-80
2023/07/26 04:52:38;;;;;;;7.20;4.70;;;;;;;13.31;100.00;96044.22;4970544;28;102124;-81
2023/07/26 04:55:06;;;;;;;5.70;4.50;;;;;;;13.41;100.00;96046.84;4971363;28;105284;-82
2023/07/26 04:57:33;;;;;;;7.80;4.27;;;;;;;13.78;100.00;96049.00;4954257;28;104125;-80
2023/07/26 05:00:00;;;;;;;5.97;5.20;;;;;;;14.11;100.00;96049.03;4971185;28;102063;-85
2023/07/26 05:02:27;;;;;;;7.67;5.07;;;;;;;14.81;100.00;96058.28;4970936;28;105061;-87
2023/07/26 05:04:54;;;;;;;8.40;5.77;;;;;;;13.69;100.00;96048.03;4957467;28;105473;-87
2023/07/26 05:07:22;;;;;;;9.43;4.70;;;;;;;14.49;100.00;96056.19;4954585;28;105108;-87
2023/07/26 05:09:49;;;;;;;10.20;5.73;;;;;;;14.47;100.00;96062.91;4953685;28;105049;-87
2023/07/26 05:12:16;;;;;;;8.77;4.83;;;;;;;14.80;100.00;96056.69;4970751;28;102017;-86
2023/07/26 05:14:44;;;;;;;9.80;4.87;;;;;;;15.43;100.00;96058.88;4970762;28;105279;-87
2023/07/26 05:17:11;;;;;;;5.27;4.77;;;;;;;14.73;100.00;96056.22;4970046;28;104383;-87
2023/07/26 05:19:38;;;;;;;4.90;4.40;;;;;;;14.27;100.00;96063.09;4970133;28;102069;-87
2023/07/26 05:22:05;;;;;;;6.53;4.37;;;;;;;14.29;100.00;96068.97;4970586;28;105362;-87
2023/07/26 05:24:34;;;;;;;4.40;4.00;;;;;;;13.87;100.00;96058.03;4953782;28;103066;-87
2023/07/26 05:27:00;;;;;;;4.57;3.60;;;;;;;13.81;100.00;96070.66;4957902;28;101969;-88
2023/07/26 05:29:27;;;;;;;3.63;3.33;;;;;;;14.55;100.00;96065.00;4969836;28;105549;-88
2023/07/26 05:31:55;;;;;;;3.50;3.20;;;;;;;14.15;100.00;96057.28;4970287;28;102005;-88
2023/07/26 05:34:22;;;;;;;3.80;3.43;;;;;;;13.66;100.00;96061.94;4970393;28;105430;-88
2023/07/26 05:36:48;;;;;;;3.67;3.30;;;;;;;13.67;100.00;96068.88;4953156;28;105536;-88
2023/07/26 05:39:15;;;;;;;2.93;2.73;;;;;;;14.00;100.00;96068.91;4970314;28;101959;-87
2023/07/26 05:41:44;;;;;;;4.03;3.27;;;;;;;14.99;100.00;96070.94;4954135;28;104850;-87
2023/07/26 05:44:11;;;;;;;4.03;2.90;;;;;;;14.72;100.00;96070.69;4969382;28;106214;-88
2023/07/26 05:46:38;;;;;;;3.10;2.90;;;;;;;13.92;100.00;96071.38;4953847;28;101995;-88
2023/07/26 05:49:05;;;;;;;4.00;3.00;;;;;;;13.96;100.00;96078.56;4973358;28;105010;-88
2023/07/26 05:51:31;;;;;;;3.53;3.23;;;;;;;14.56;100.00;96079.97;4953464;28;102011;-88
2023/07/26 05:53:58;;;;;;;3.90;3.37;;;;;;;15.26;100.00;96081.88;4953843;28;105125;-87
2023/07/26 05:56:25;;;;;;;3.93;3.63;;;;;;;14.72;100.00;96070.69;4969486;28;105254;-87
2023/07/26 05:58:54;;;;;;;3.93;3.43;;;;;;;14.57;100.00;96079.69;4971406;28;101924;-88
2023/07/26 06:01:20;;;;;;;4.13;3.73;;;;;;;14.20;100.00;96076.81;4969894;28;105314;-87
2023/07/26 06:03:47;;;;;;;4.37;3.73;;;;;;;14.39;100.00;96090.28;4969363;28;105875;-87
2023/07/26 06:06:15;;;;;;;6.33;4.00;;;;;;;15.39;100.00;96097.25;4953688;28;102130;-88
2023/07/26 06:08:41;;;;;;;4.87;3.80;;;;;;;14.11;100.00;96096.38;4971408;28;102636;-87
2023/07/26 06:11:09;;;;;;;5.90;3.90;;;;;;;14.33;100.00;96105.56;4972434;28;102787;-87
2023/07/26 06:13:36;;;;;;;5.50;4.27;;;;;;;14.04;100.00;96106.56;4967779;28;105490;-87
2023/07/26 06:16:04;;;;;;;4.33;3.93;;;;;;;13.92;100.00;96112.28;4968625;28;102818;-88
2023/07/26 06:18:31;;;;;;;4.83;4.33;;;;;;;15.23;100.00;96118.06;4967558;28;102310;-87
2023/07/26 06:20:58;;;;;;;6.60;4.40;;;;;;;15.32;100.00;96105.63;4969399;28;102816;-87
2023/07/26 06:23:25;;;;;;;4.40;4.00;;;;;;;16.12;100.00;96106.41;4951026;28;105862;-87
2023/07/26 06:25:52;;;;;;;4.50;4.00;;;;;;;16.46;100.00;96099.72;4970084;28;101992;-87
2023/07/26 06:28:19;;;;;;;7.67;4.07;;;;;;;16.21;100.00;96104.69;4952552;28;105251;-88
2023/07/26 06:30:46;;;;;;;4.80;4.40;;;;;;;16.13;100.00;96100.00;4951616;28;105012;-88
2023/07/26 06:33:14;;;;;;;4.43;4.03;;;;;;;15.47;100.00;96100.09;4955788;28;102444;-88
2023/07/26 06:35:41;;;;;;;5.37;3.80;;;;;;;15.77;100.00;96113.13;4951801;28;105175;-88
2023/07/26 06:38:09;;;;;;;7.53;5.17;;;;;;;15.94;100.00;96115.28;4952460;28;102285;-87
2023/07/26 06:40:36;;;;;;;6.10;4.10;;;;;;;16.05;100.00;96103.31;4968844;28;105015;-87
2023/07/26 06:43:03;;;;;;;4.60;4.20;;;;;;;15.33;100.00;96109.13;4968183;28;105239;-87
2023/07/26 06:45:30;;;;;;;8.83;5.03;;;;;;;14.91;100.00;96117.88;4968496;28;101906;-88
2023/07/26 06:47:57;;;;;;;6.03;4.90;;;;;;;14.46;100.00;96129.03;4967912;28;105533;-87
2023/07/26 06:50:25;;;;;;;5.00;4.53;;;;;;;14.41;100.00;96123.72;4967642;28;105334;-88
2023/07/26 06:52:52;;;;;;;5.10;4.60;;;;;;;14.95;100.00;96131.50;4972043;28;101876;-88
2023/07/26 06:55:19;;;;;;;7.13;5.83;;;;;;;14.45;100.00;96129.28;4967903;28;105517;-88
2023/07/26 06:57:46;;;;;;;6.70;6.00;;;;;;;14.56;100.00;96125.44;4952060;28;101987;-87
2023/07/26 07:00:15;;;;;;;6.00;5.40;;;;;;;14.35;100.00;96121.34;4969953;28;102989;-88
2023/07/26 07:02:42;;;;;;;5.70;5.20;;;;;;;14.64;100.00;96122.16;4969033;28;103150;-88
2023/07/26 07:05:09;;;;;;;6.27;5.40;;;;;;;14.61;100.00;96120.06;4952223;28;101934;-87
2023/07/26 07:07:38;;;;;;;6.43;5.67;;;;;;;14.40;100.00;96118.63;4968398;28;105269;-88
2023/07/26 07:10:06;;;;;;;7.47;5.47;;;;;;;14.38;100.00;96129.59;4969086;28;102883;-87
2023/07/26 07:12:33;;;;;;;6.90;5.63;;;;;;;14.42;100.00;96135.19;4951726;28;102075;-87
2023/07/26 07:15:00;;;;;;;7.90;5.83;;;;;;;14.33;100.00;96144.91;4972273;28;102713;-87
2023/07/26 07:17:29;;;;;;;2.77;2.53;;;;;;;13.75;100.00;96145.78;4969686;28;101911;-87
2023/07/26 07:19:56;;;;;;;2.10;2.00;;;;;;;13.40;100.00;96145.97;4951711;28;105340;-87
2023/07/26 07:22:25;;;;;;;1.90;1.80;;;;;;;13.36;100.00;96156.38;4951102;28;104216;-88
2023/07/26 07:24:53;;;;;;;2.03;1.93;;;;;;;13.32;100.00;96167.88;4951900;28;101951;-88
2023/07/26 07:27:21;;;;;;;1.30;1.30;;;;;;;12.86;100.00;96167.16;4951935;28;104028;-86
2023/07/26 07:29:48;;;;;;;2.10;1.50;;;;;;;12.57;100.00;96165.34;4967474;28;105750;-86
2023/07/26 07:32:15;;;;;;;1.50;1.40;;;;;;;12.51;100.00;96163.75;4951479;28;102057;-86
2023/07/26 07:34:43;;;;;;;1.33;1.33;;;;;;;12.19;100.00;96176.53;4951782;28;104937;-87
2023/07/26 07:37:09;;;;;;;2.50;1.50;;;;;;;12.39;100.00;96185.38;4954425;28;105205;-86
2023/07/26 07:39:37;;;;;;;1.57;1.47;;;;;;;12.29;100.00;96181.88;4968223;28;105215;-87
2023/07/26 07:42:06;;;;;;;1.40;1.30;;;;;;;12.06;100.00;96188.53;4968943;28;102808;-87
2023/07/26 07:44:33;;;;;;;1.63;1.53;;;;;;;12.08;100.00;96190.91;4969592;28;102037;-87
2023/07/26 07:47:00;;;;;;;1.57;1.47;;;;;;;12.08;100.00;96190.91;4951588;28;104250;-87
2023/07/26 07:49:28;;;;;;;1.40;1.37;;;;;;;11.97;100.00;96199.94;4967173;28;105992;-87
2023/07/26 07:51:55;;;;;;;1.43;1.43;;;;;;;11.81;100.00;96198.31;4951347;28;101976;-87
2023/07/26 07:54:22;;;;;;;1.90;1.80;;;;;;;11.93;100.00;96190.91;4968107;28;105092;-87
2023/07/26 07:56:49;;;;;;;3.17;1.70;;;;;;;11.90;100.00;96208.22;4967651;28;105174;-86
2023/07/26 07:59:16;;;;;;;3.47;1.93;;;;;;;11.91;100.00;96212.47;4971452;28;102211;-86
2023/07/26 08:01:43;;;;;;;2.30;2.17;;;;;;;11.81;100.00;96215.09;4970842;28;105652;-87
2023/07/26 08:04:10;;;;;;;2.00;1.90;;;;;;;11.89;100.00;96216.47;4971273;28;102083;-87
2023/07/26 08:06:37;;;;;;;2.23;2.00;;;;;;;12.22;100.00;96219.44;4954813;28;105522;-87
2023/07/26 08:09:05;;;;;;;1.90;1.80;;;;;;;12.13;100.00;96223.72;4971869;28;102837;-87
2023/07/26 08:11:31;;;;;;;2.73;2.53;;;;;;;12.51;100.00;96219.75;4970977;28;101964;-87
2023/07/26 08:13:58;;;;;;;2.10;2.00;;;;;;;12.73;100.00;96218.44;4970979;28;105488;-87
2023/07/26 08:16:27;;;;;;;2.57;1.77;;;;;;;12.79;100.00;96225.38;4953869;28;105749;-87
2023/07/26 08:18:54;;;;;;;2.47;2.27;;;;;;;13.45;100.00;96220.72;4970663;28;102003;-87
2023/07/26 08:21:21;;;;;;;2.03;1.93;;;;;;;13.55;100.00;96215.34;4973695;28;105961;-87
2023/07/26 08:23:48;;;;;;;1.80;1.70;;;;;;;13.30;100.00;96212.78;4970764;28;101954;-87
2023/07/26 08:26:15;;;;;;;2.83;1.53;;;;;;;12.96;100.00;96217.91;4972183;28;102648;-87
2023/07/26 08:28:42;;;;;;;1.90;1.80;;;;;;;13.13;100.00;96222.97;4970218;28;105291;-87
2023/07/26 08:31:09;;;;;;;1.80;1.70;;;;;;;12.98;100.00;96225.66;4970569;28;102014;-87
2023/07/26 08:33:37;;;;;;;1.87;1.77;;;;;;;13.12;100.00;96221.34;4954429;28;105479;-87
2023/07/26 08:36:05;;;;;;;1.50;1.50;;;;;;;13.58;100.00;96228.19;4953692;28;104382;-87
2023/07/26 08:38:34;;;;;;;2.40;1.43;;;;;;;13.30;100.00;96220.78;4970562;28;101990;-87
2023/07/26 08:41:02;;;;;;;1.63;1.50;;;;;;;13.71;100.00;96227.59;4953970;28;105588;-87
2023/07/26 08:43:32;;;;;;;1.70;1.60;;;;;;;13.33;100.00;96230.91;4973304;28;105369;-88
2023/07/26 08:46:01;;;;;;;1.53;1.43;;;;;;;13.56;100.00;96240.97;4970611;28;105373;-87
2023/07/26 08:48:28;;;;;;;1.57;1.40;;;;;;;13.19;100.00;96237.91;4953403;28;104992;-87
2023/07/26 08:50:57;;;;;;;1.60;1.50;;;;;;;13.27;100.00;96235.47;4969746;28;101944;-87
2023/07/26 08:53:25;;;;;;;1.40;1.40;;;;;;;13.42;100.00;96237.31;4953878;28;105090;-87
2023/07/26 08:55:52;;;;;;;1.60;1.50;;;;;;;13.35;100.00;96237.59;4953177;28;104104;-87
2023/07/26 08:58:19;;;;;;;1.70;1.60;;;;;;;13.66;100.00;96247.13;4954065;28;102068;-87
2023/07/26 09:00:46;;;;;;;1.73;1.50;;;;;;;13.71;100.00;96243.63;4970245;28;105048;-87
2023/07/26 09:03:13;;;;;;;1.40;1.30;;;;;;;13.18;100.00;96241.63;4956653;28;105738;-87
2023/07/26 09:05:40;;;;;;;1.90;1.30;;;;;;;13.71;100.00;96246.28;4953682;28;105381;-87
2023/07/26 09:08:09;;;;;;;1.70;1.60;;;;;;;13.81;100.00;96244.41;4969291;28;106024;-87
2023/07/26 09:10:38;;;;;;;2.20;1.40;;;;;;;14.02;100.00;96245.88;4969492;28;103735;-87
2023/07/26 09:13:10;;;;;;;1.60;1.50;;;;;;;13.80;100.00;96247.34;4970123;28;105044;-87
2023/07/26 09:15:38;;;;;;;2.07;1.50;;;;;;;14.31;100.00;96256.72;4952965;28;105407;-87
2023/07/26 09:18:05;;;;;;;3.73;1.70;;;;;;;13.88;100.00;96250.22;4953760;28;102024;-87
2023/07/26 09:20:33;;;;;;;1.83;1.47;;;;;;;13.69;100.00;96249.22;4953316;28;105192;-87
2023/07/26 09:23:04;;;;;;;1.60;1.37;;;;;;;14.24;100.00;96256.25;4952774;28;105770;-87
2023/07/26 09:25:35;;;;;;;2.13;1.80;;;;;;;14.26;100.00;96251.41;4973227;28;102156;-87
2023/07/26 09:28:02;;;;;;;1.37;1.27;;;;;;;13.55;100.00;96247.41;4969029;28;105090;-86
2023/07/26 09:30:30;;;;;;;2.00;1.70;;;;;;;13.92;100.00;96247.81;4969807;28;101867;-86
2023/07/26 09:32:57;;;;;;;1.97;1.30;;;;;;;13.87;100.00;96243.28;4969548;28;105299;-87
2023/07/26 09:35:24;;;;;;;1.40;1.30;;;;;;;14.03;100.00;96239.47;4969084;28;105552;-87
2023/07/26 09:37:51;;;;;;;1.90;1.80;;;;;;;14.33;100.00;96242.00;4969308;28;102626;-86
2023/07/26 09:40:31;;;;;;;1.83;1.73;;;;;;;14.73;100.00;96238.25;4969553;28;105216;-86
2023/07/26 09:42:59;;;;;;;3.03;1.80;;;;;;;14.40;100.00;96239.03;4970402;28;102818;-87
2023/07/26 09:45:26;;;;;;;1.73;1.20;;;;;;;13.84;100.00;96235.81;4969339;28;102424;-87
2023/07/26 09:48:04;;;;;;;2.43;1.70;;;;;;;13.95;100.00;96242.72;4939856;28;104466;-87
2023/07/26 09:50:31;;;;;;;1.53;1.40;;;;;;;13.81;100.00;96247.06;4968970;28;103644;-86
2023/07/26 09:52:58;;;;;;;1.40;1.40;;;;;;;13.68;100.00;96241.50;4952874;28;105735;-86
2023/07/26 09:55:28;;;;;;;1.67;1.57;;;;;;;13.99;100.00;96243.78;4968718;28;104982;-86
2023/07/26 09:57:56;;;;;;;1.57;1.47;;;;;;;14.19;100.00;96248.22;4952927;28;102001;-87
2023/07/26 10:00:27;;;;;;;1.30;1.30;;;;;;;14.10;100.00;96239.16;4970576;28;102977;-86
2023/07/26 10:02:56;;;;;;;1.50;1.40;;;;;;;14.30;100.00;96239.09;4968371;28;105818;-87
2023/07/26 10:05:25;;;;;;;1.53;1.40;;;;;;;14.56;100.00;96237.84;4952792;28;101974;-86
2023/07/26 10:07:52;;;;;;;2.30;1.40;;;;;;;14.94;100.00;96228.97;4968877;28;105271;-87
2023/07/26 10:10:21;;;;;;;1.80;1.50;;;;;;;14.99;100.00;96219.00;4973350;28;103184;-87
2023/07/26 10:12:52;;;;;;;1.40;1.27;;;;;;;14.67;100.00;96224.09;4970408;28;102695;-87
2023/07/26 10:15:21;;;;;;;1.83;1.50;;;;;;;15.62;100.00;96231.25;4968308;28;105953;-87
2023/07/26 10:17:52;;;;;;;1.73;1.30;;;;;;;16.06;100.00;96222.94;4969055;28;101971;-86
2023/07/26 10:20:20;;;;;;;1.03;1.00;;;;;;;15.31;100.00;96218.44;4970435;28;102885;-86
2023/07/26 10:22:48;;;;;;;1.20;1.20;;;;;;;15.26;100.00;96215.81;4967237;28;105687;-87
2023/07/26 10:25:16;;;;;;;1.53;1.00;;;;;;;15.13;100.00;96211.09;4952723;28;102165;-86
2023/07/26 10:27:44;;;;;;;1.33;1.00;;;;;;;15.11;100.00;96213.28;4952545;28;104249;-86
2023/07/26 10:30:12;;;;;;;2.00;1.20;;;;;;;15.23;100.00;96206.47;4951878;28;105534;-86
2023/07/26 10:32:47;;;;;;;1.57;1.47;;;;;;;15.20;100.00;96203.56;4955930;28;101867;-86
2023/07/26 10:35:26;;;;;;;1.63;1.40;;;;;;;16.12;100.00;96193.06;4951676;28;105410;-87
2023/07/26 10:37:53;;;;;;;1.20;1.20;;;;;;;16.24;100.00;96189.97;4952368;28;101932;-86
2023/07/26 10:40:30;;;;;;;1.60;1.40;;;;;;;16.53;100.00;96182.56;4952353;28;104808;-87
2023/07/26 10:42:58;;;;;;;1.10;1.10;;;;;;;16.85;100.00;96190.66;4969527;28;102913;-86
2023/07/26 10:45:43;;;;;;;1.00;1.00;;;;;;;17.09;100.00;96181.34;4952278;28;102373;-86
2023/07/26 10:48:14;;;;;;;1.17;0.90;;;;;;;17.26;100.00;96173.50;4970221;28;103089;-87
2023/07/26 10:50:42;;;;;;;1.10;1.00;;;;;;;17.40;100.00;96187.00;4967174;28;105510;-87
2023/07/26 10:53:29;;;;;;;1.13;1.07;;;;;;;16.75;100.00;96175.50;4968438;28;101939;-87
2023/07/26 10:56:08;;;;;;;1.20;1.10;;;;;;;16.56;100.00;96174.72;4972746;28;102701;-88
2023/07/26 10:58:35;;;;;;;1.20;1.10;;;;;;;16.96;100.00;96170.56;4968687;28;102138;-87
2023/07/26 11:01:03;;;;;;;1.33;1.13;;;;;;;17.60;100.00;96165.09;4969943;28;102588;-87
2023/07/26 11:03:30;;;;;;;1.03;1.00;;;;;;;16.82;100.00;96161.69;4969139;28;102806;-87
2023/07/26 11:05:59;;;;;;;0.90;0.90;;;;;;;16.98;100.00;96157.63;4968219;28;102007;-87
2023/07/26 11:08:41;;;;;;;1.00;1.00;;;;;;;16.80;100.00;96161.19;4968391;28;105101;-87
2023/07/26 11:11:09;;;;;;;1.40;0.80;;;;;;;16.69;100.00;96165.13;4967723;28;104135;-87
2023/07/26 11:13:36;;;;;;;1.30;1.17;;;;;;;16.88;100.00;96160.50;4951937;28;102412;-86
2023/07/26 11:16:03;;;;;;;1.20;1.10;;;;;;;17.36;100.00;96154.50;4971133;28;105034;-86
2023/07/26 11:18:30;;;;;;;1.20;0.90;;;;;;;17.10;100.00;96160.63;4968064;28;102279;-86
2023/07/26 11:20:58;;;;;;;1.30;1.00;;;;;;;17.73;100.00;96148.16;4969456;28;102857;-87